TimeCEST,TemperatureF,Dew PointF,Humidity,Sea Level PressureIn,VisibilityMPH,Wind Direction,Wind SpeedMPH,Gust SpeedMPH,PrecipitationIn,Events,Conditions,WindDirDegrees,DateUTC
12:15 AM,53.6,48.2,82,30.21,6.2,NE,4.6,-,N/A,,Scattered Clouds,40,2011-10-16 22:15:00
12:45 AM,53.6,48.2,82,30.21,6.2,ENE,4.6,-,N/A,,Partly Cloudy,60,2011-10-16 22:45:00
1:15 AM,53.6,46.4,77,30.21,6.2,NNE,1.2,-,N/A,,Partly Cloudy,30,2011-10-16 23:15:00
1:45 AM,53.6,44.6,72,30.21,6.2,NE,5.8,-,N/A,,Partly Cloudy,40,2011-10-16 23:45:00
2:15 AM,51.8,44.6,76,30.21,6.2,NE,6.9,-,N/A,,Partly Cloudy,50,2011-10-17 00:15:00
2:45 AM,51.8,42.8,71,30.21,6.2,NNE,2.3,-,N/A,,Partly Cloudy,20,2011-10-17 00:45:00
3:15 AM,50.0,41.0,71,30.21,6.2,NE,5.8,-,N/A,,Partly Cloudy,40,2011-10-17 01:15:00
3:45 AM,50.0,41.0,71,30.21,6.2,NNE,3.5,-,N/A,,Partly Cloudy,20,2011-10-17 01:45:00
4:15 AM,50.0,41.0,71,30.21,6.2,North,5.8,-,N/A,,Partly Cloudy,360,2011-10-17 02:15:00
4:45 AM,50.0,39.2,66,30.21,6.2,North,5.8,-,N/A,,Partly Cloudy,10,2011-10-17 02:45:00
6:15 AM,50.0,39.2,66,30.21,6.2,North,5.8,-,N/A,,Scattered Clouds,10,2011-10-17 04:15:00
6:45 AM,50.0,39.2,66,30.21,6.2,NNE,3.5,-,N/A,,Scattered Clouds,20,2011-10-17 04:45:00
7:15 AM,50.0,39.2,66,30.21,6.2,NNE,4.6,-,N/A,,Partly Cloudy,20,2011-10-17 05:15:00
7:45 AM,48.2,39.2,71,30.21,6.2,North,4.6,-,N/A,,Partly Cloudy,360,2011-10-17 05:45:00
8:15 AM,46.4,39.2,76,30.21,6.2,North,2.3,-,N/A,,Partly Cloudy,10,2011-10-17 06:15:00
8:45 AM,46.4,39.2,76,30.21,6.2,NNE,2.3,-,N/A,,Partly Cloudy,20,2011-10-17 06:45:00
9:15 AM,50.0,41.0,71,30.21,6.2,NNE,6.9,-,N/A,,Partly Cloudy,30,2011-10-17 07:15:00
9:45 AM,51.8,41.0,67,30.24,6.2,North,5.8,-,N/A,,Partly Cloudy,360,2011-10-17 07:45:00
10:15 AM,51.8,41.0,67,30.24,6.2,North,6.9,-,N/A,,Partly Cloudy,10,2011-10-17 08:15:00
10:45 AM,53.6,42.8,67,30.24,6.2,NNE,5.8,-,N/A,,Scattered Clouds,30,2011-10-17 08:45:00
11:15 AM,57.2,44.6,63,30.24,6.2,NE,4.6,-,N/A,,Partly Cloudy,40,2011-10-17 09:15:00
11:45 AM,60.8,37.4,42,30.24,6.2,North,4.6,-,N/A,,Partly Cloudy,360,2011-10-17 09:45:00
12:15 PM,62.6,37.4,39,30.24,6.2,NNW,4.6,-,N/A,,Partly Cloudy,330,2011-10-17 10:15:00
12:45 PM,64.4,37.4,37,30.24,6.2,North,8.1,-,N/A,,Partly Cloudy,350,2011-10-17 10:45:00
1:15 PM,64.4,41.0,42,30.24,6.2,NNW,5.8,-,N/A,,Partly Cloudy,330,2011-10-17 11:15:00
1:45 PM,64.4,42.8,45,30.24,6.2,NNW,10.4,-,N/A,,Partly Cloudy,330,2011-10-17 11:45:00
2:15 PM,64.4,42.8,45,30.21,6.2,NNW,8.1,-,N/A,,Partly Cloudy,330,2011-10-17 12:15:00
2:45 PM,66.2,41.0,40,30.21,6.2,NW,5.8,-,N/A,,Partly Cloudy,310,2011-10-17 12:45:00
3:15 PM,66.2,42.8,43,30.21,6.2,NNW,8.1,-,N/A,,Partly Cloudy,330,2011-10-17 13:15:00
3:45 PM,66.2,42.8,43,30.18,6.2,NW,10.4,-,N/A,,Partly Cloudy,310,2011-10-17 13:45:00
4:15 PM,66.2,44.6,46,30.18,6.2,West,9.2,-,N/A,,Partly Cloudy,270,2011-10-17 14:15:00
4:45 PM,66.2,44.6,46,30.18,6.2,West,8.1,-,N/A,,Partly Cloudy,280,2011-10-17 14:45:00
5:15 PM,64.4,46.4,52,30.18,6.2,West,12.7,-,N/A,,Partly Cloudy,280,2011-10-17 15:15:00
5:45 PM,64.4,46.4,52,30.18,6.2,West,11.5,-,N/A,,Partly Cloudy,280,2011-10-17 15:45:00
6:15 PM,62.6,46.4,55,30.18,-9999.0,WNW,10.4,-,N/A,,Clear,290,2011-10-17 16:15:00
6:45 PM,60.8,50.0,68,30.18,-9999.0,West,4.6,-,N/A,,Clear,270,2011-10-17 16:45:00
7:15 PM,59.0,48.2,67,30.18,-9999.0,West,1.2,-,N/A,,Clear,260,2011-10-17 17:15:00
7:45 PM,59.0,50.0,72,30.18,-9999.0,SW,1.2,-,N/A,,Clear,230,2011-10-17 17:45:00
8:15 PM,57.2,50.0,77,30.18,-9999.0,SW,1.2,-,N/A,,Clear,220,2011-10-17 18:15:00
8:45 PM,57.2,50.0,77,30.18,-9999.0,Calm,Calm,-,N/A,,Clear,0,2011-10-17 18:45:00
9:15 PM,55.4,51.8,88,30.18,-9999.0,East,2.3,-,N/A,,Clear,100,2011-10-17 19:15:00
9:45 PM,55.4,50.0,82,30.18,-9999.0,ENE,1.2,-,N/A,,Clear,70,2011-10-17 19:45:00
10:15 PM,53.6,50.0,88,30.18,-9999.0,ENE,2.3,-,N/A,,Clear,60,2011-10-17 20:15:00
10:45 PM,53.6,50.0,88,30.18,-9999.0,East,2.3,-,N/A,,Clear,100,2011-10-17 20:45:00
11:15 PM,53.6,50.0,88,30.18,-9999.0,East,3.5,-,N/A,,Clear,90,2011-10-17 21:15:00
11:45 PM,53.6,50.0,88,30.18,-9999.0,East,2.3,-,N/A,,Clear,100,2011-10-17 21:45:00